Time;durP1;ratioP1;P1;durP2;ratioP2;P2;SDS_P1;SDS_P2;PMS_P1;PMS_P2;Temp;Humidity;BMP_temperature;BMP_pressure;BME280_temperature;BME280_humidity;BME280_pressure;Samples;Min_cycle;Max_cycle;Signal;HPM_P1;HPM_P2
2021/08/09 00:01:42;;;;;;;9.02;2.30;;;;;;;;;;5116071;28;20114;-75
2021/08/09 00:04:07;;;;;;;8.50;2.30;;;;;;;;;;5115804;28;20051;-75
2021/08/09 00:06:32;;;;;;;6.15;2.17;;;;;;;;;;5115796;28;20028;-74
2021/08/09 00:09:02;;;;;;;7.28;1.90;;;;;;;;;;5115698;28;20490;-75
2021/08/09 00:11:27;;;;;;;7.47;2.28;;;;;;;;;;5097359;28;20020;-74
2021/08/09 00:13:52;;;;;;;7.80;2.10;;;;;;;;;;5115659;28;20076;-74
2021/08/09 00:16:18;;;;;;;8.10;2.42;;;;;;;;;;5114710;28;20031;-75
2021/08/09 00:18:46;;;;;;;11.65;2.50;;;;;;;;;;5115631;28;20015;-75
2021/08/09 00:21:12;;;;;;;11.50;2.88;;;;;;;;;;5115613;28;20031;-75
2021/08/09 00:23:37;;;;;;;12.80;2.35;;;;;;;;;;5115553;28;20039;-75
2021/08/09 00:26:03;;;;;;;10.18;2.97;;;;;;;;;;5115455;28;20115;-75
2021/08/09 00:28:28;;;;;;;8.52;2.60;;;;;;;;;;5115396;28;20106;-75
2021/08/09 00:30:53;;;;;;;12.57;2.47;;;;;;;;;;5115434;28;20115;-75
2021/08/09 00:33:19;;;;;;;7.85;2.13;;;;;;;;;;5115316;28;20062;-75
2021/08/09 00:35:44;;;;;;;11.00;2.15;;;;;;;;;;5115427;28;20035;-74
2021/08/09 00:38:09;;;;;;;11.68;2.72;;;;;;;;;;5115279;28;20023;-75
2021/08/09 00:40:35;;;;;;;11.13;2.40;;;;;;;;;;5115228;28;20030;-75
2021/08/09 00:43:00;;;;;;;12.13;2.30;;;;;;;;;;5115450;28;20455;-74
2021/08/09 00:45:27;;;;;;;9.32;2.70;;;;;;;;;;5114989;28;20456;-75
2021/08/09 00:47:53;;;;;;;11.20;2.97;;;;;;;;;;5115151;28;20106;-75
2021/08/09 00:50:18;;;;;;;7.93;2.55;;;;;;;;;;5114898;28;20799;-75
2021/08/09 00:52:43;;;;;;;12.02;3.00;;;;;;;;;;5114975;28;20028;-75
2021/08/09 00:55:09;;;;;;;15.43;3.53;;;;;;;;;;5114779;28;20024;-75
2021/08/09 00:57:34;;;;;;;6.63;2.35;;;;;;;;;;5114776;28;20024;-74
2021/08/09 01:00:01;;;;;;;12.07;3.33;;;;;;;;;;5114766;28;20035;-75
2021/08/09 01:02:26;;;;;;;9.93;2.88;;;;;;;;;;5114806;28;20023;-74
2021/08/09 01:04:52;;;;;;;9.50;2.97;;;;;;;;;;5114811;28;20031;-75
2021/08/09 01:07:18;;;;;;;9.95;3.15;;;;;;;;;;5114612;28;20038;-75
2021/08/09 01:09:43;;;;;;;13.60;3.15;;;;;;;;;;5114575;28;20114;-75
2021/08/09 01:12:27;;;;;;;10.02;3.25;;;;;;;;;;5114854;28;20132;-75
2021/08/09 01:14:58;;;;;;;12.43;4.00;;;;;;;;;;5114103;28;20601;-75
2021/08/09 01:17:27;;;;;;;13.23;3.55;;;;;;;;;;5114143;28;20076;-74
2021/08/09 01:20:11;;;;;;;11.18;3.78;;;;;;;;;;5096127;28;20054;-75
2021/08/09 01:22:36;;;;;;;12.75;3.78;;;;;;;;;;5114382;28;20030;-74
2021/08/09 01:25:20;;;;;;;12.13;3.88;;;;;;;;;;5114361;28;20020;-75
2021/08/09 01:27:47;;;;;;;12.23;3.75;;;;;;;;;;5112942;28;20432;-74
2021/08/09 01:30:12;;;;;;;10.27;4.68;;;;;;;;;;5113851;28;20451;-74
2021/08/09 01:32:39;;;;;;;13.50;3.58;;;;;;;;;;5114128;28;20055;-75
2021/08/09 01:35:07;;;;;;;13.48;3.72;;;;;;;;;;5114047;28;20436;-75
2021/08/09 01:37:33;;;;;;;18.48;3.85;;;;;;;;;;5114166;28;20023;-75
2021/08/09 01:39:59;;;;;;;14.90;4.40;;;;;;;;;;5114127;28;20035;-74
2021/08/09 01:42:24;;;;;;;16.85;4.10;;;;;;;;;;5114024;28;20030;-75
2021/08/09 01:44:49;;;;;;;12.98;3.95;;;;;;;;;;5114091;28;20034;-75
2021/08/09 01:47:15;;;;;;;15.27;4.00;;;;;;;;;;5113894;28;20028;-75
2021/08/09 01:49:40;;;;;;;16.40;4.85;;;;;;;;;;5114042;28;20024;-74
2021/08/09 01:52:07;;;;;;;14.55;4.05;;;;;;;;;;5113638;28;20024;-74
2021/08/09 01:54:33;;;;;;;21.98;4.28;;;;;;;;;;5114053;28;20052;-75
2021/08/09 01:56:58;;;;;;;12.70;4.18;;;;;;;;;;5113926;28;20525;-75
2021/08/09 01:59:24;;;;;;;15.10;4.63;;;;;;;;;;5113805;28;20016;-74
2021/08/09 02:01:49;;;;;;;12.23;3.65;;;;;;;;;;5113660;28;20032;-75
2021/08/09 02:04:15;;;;;;;10.90;4.50;;;;;;;;;;5113782;28;20028;-74
2021/08/09 02:06:40;;;;;;;14.95;4.35;;;;;;;;;;5113869;28;20016;-75
2021/08/09 02:09:07;;;;;;;18.00;4.50;;;;;;;;;;5113766;28;20076;-75
2021/08/09 02:11:32;;;;;;;14.45;3.85;;;;;;;;;;5113832;28;20024;-75
2021/08/09 02:14:01;;;;;;;11.55;4.68;;;;;;;;;;5113965;28;20030;-75
2021/08/09 02:16:37;;;;;;;16.88;4.05;;;;;;;;;;5113332;28;20043;-75
2021/08/09 02:19:10;;;;;;;15.55;4.25;;;;;;;;;;5113718;28;20027;-74
2021/08/09 02:21:55;;;;;;;11.13;5.30;;;;;;;;;;5113529;28;20031;-75
2021/08/09 02:24:27;;;;;;;15.70;4.43;;;;;;;;;;5061623;28;20035;-75
2021/08/09 02:26:58;;;;;;;12.75;4.30;;;;;;;;;;5113604;28;20042;-74
2021/08/09 02:29:26;;;;;;;19.23;4.47;;;;;;;;;;5113303;28;20497;-75
2021/08/09 02:31:53;;;;;;;17.33;5.05;;;;;;;;;;5113350;28;20087;-74
2021/08/09 02:34:20;;;;;;;16.63;4.55;;;;;;;;;;5113345;28;20040;-75
2021/08/09 02:36:46;;;;;;;15.88;5.30;;;;;;;;;;5113570;28;20026;-75
2021/08/09 02:39:12;;;;;;;20.15;5.40;;;;;;;;;;5115455;28;20445;-75
2021/08/09 02:41:38;;;;;;;12.82;4.60;;;;;;;;;;5117618;28;20088;-75
2021/08/09 02:44:03;;;;;;;12.60;4.97;;;;;;;;;;5117382;28;20459;-75
2021/08/09 02:46:29;;;;;;;19.42;4.75;;;;;;;;;;5117378;28;20532;-75
2021/08/09 02:48:54;;;;;;;15.15;4.82;;;;;;;;;;5117396;28;20020;-75
2021/08/09 02:51:20;;;;;;;10.25;4.53;;;;;;;;;;5117055;28;20031;-75
2021/08/09 02:53:46;;;;;;;18.52;4.72;;;;;;;;;;5117231;28;20038;-75
2021/08/09 02:56:11;;;;;;;16.15;4.07;;;;;;;;;;5117569;28;20033;-74
2021/08/09 02:58:37;;;;;;;11.95;3.60;;;;;;;;;;5117164;28;20032;-75
2021/08/09 03:01:02;;;;;;;9.80;3.80;;;;;;;;;;5117071;28;20070;-75
2021/08/09 03:03:28;;;;;;;13.27;4.18;;;;;;;;;;5117099;28;20024;-74
2021/08/09 03:05:56;;;;;;;12.77;4.53;;;;;;;;;;5117052;28;20034;-74
2021/08/09 03:08:22;;;;;;;17.30;4.40;;;;;;;;;;5116674;28;20475;-74
2021/08/09 03:10:47;;;;;;;16.63;4.07;;;;;;;;;;5117001;28;20026;-76
2021/08/09 03:13:12;;;;;;;15.27;4.43;;;;;;;;;;5116677;28;20028;-75
2021/08/09 03:15:38;;;;;;;14.20;4.40;;;;;;;;;;5116936;28;20118;-74
2021/08/09 03:18:03;;;;;;;16.10;4.28;;;;;;;;;;5116754;28;20020;-74
2021/08/09 03:20:30;;;;;;;12.75;3.88;;;;;;;;;;5116759;28;20031;-74
2021/08/09 03:22:55;;;;;;;11.25;3.95;;;;;;;;;;5116631;28;20028;-75
2021/08/09 03:25:21;;;;;;;13.77;3.75;;;;;;;;;;5116643;28;20026;-75
2021/08/09 03:27:46;;;;;;;15.35;4.13;;;;;;;;;;5116678;28;20027;-75
2021/08/09 03:30:11;;;;;;;15.73;4.00;;;;;;;;;;5116567;28;20063;-75
2021/08/09 03:32:36;;;;;;;9.93;3.70;;;;;;;;;;5116096;28;20052;-74
2021/08/09 03:35:02;;;;;;;16.27;3.63;;;;;;;;;;5116712;28;20436;-75
2021/08/09 03:37:27;;;;;;;17.48;3.95;;;;;;;;;;5116411;28;20038;-75
2021/08/09 03:39:52;;;;;;;14.98;4.13;;;;;;;;;;5116498;28;20028;-75
2021/08/09 03:42:20;;;;;;;14.13;5.00;;;;;;;;;;5116012;28;20032;-75
2021/08/09 03:44:46;;;;;;;12.57;3.95;;;;;;;;;;5116421;28;20114;-74
2021/08/09 03:47:12;;;;;;;8.73;3.53;;;;;;;;;;5116214;28;20027;-75
2021/08/09 03:49:37;;;;;;;14.85;4.20;;;;;;;;;;5115595;28;20024;-75
2021/08/09 03:52:02;;;;;;;13.60;4.63;;;;;;;;;;5115537;28;20061;-75
2021/08/09 03:54:28;;;;;;;17.73;4.03;;;;;;;;;;5115737;28;20043;-75
2021/08/09 03:56:53;;;;;;;13.20;4.10;;;;;;;;;;5116059;28;20031;-74
2021/08/09 03:59:18;;;;;;;20.13;4.80;;;;;;;;;;5115622;28;20090;-75
2021/08/09 04:01:47;;;;;;;16.13;3.80;;;;;;;;;;5116062;28;20020;-75
2021/08/09 04:04:12;;;;;;;13.13;3.88;;;;;;;;;;5115642;28;20475;-75
2021/08/09 04:06:37;;;;;;;15.68;4.70;;;;;;;;;;5115859;28;20093;-75
2021/08/09 04:09:03;;;;;;;13.02;4.00;;;;;;;;;;5115846;28;20020;-75
2021/08/09 04:11:28;;;;;;;14.00;4.00;;;;;;;;;;5115566;28;20028;-75
2021/08/09 04:13:56;;;;;;;15.13;3.95;;;;;;;;;;5097207;28;20130;-75
2021/08/09 04:16:22;;;;;;;16.88;4.00;;;;;;;;;;5115641;28;20028;-75
2021/08/09 04:18:47;;;;;;;11.40;4.22;;;;;;;;;;5115647;28;20363;-75
2021/08/09 04:21:12;;;;;;;9.45;3.80;;;;;;;;;;5115551;28;20415;-75
2021/08/09 04:23:38;;;;;;;13.57;3.92;;;;;;;;;;5115574;28;20107;-75
2021/08/09 04:26:03;;;;;;;14.50;4.18;;;;;;;;;;5115540;28;20051;-75
2021/08/09 04:28:28;;;;;;;10.73;4.03;;;;;;;;;;5115474;28;20475;-75
2021/08/09 04:30:53;;;;;;;10.93;3.30;;;;;;;;;;5115523;28;20026;-75
2021/08/09 04:33:19;;;;;;;12.00;4.43;;;;;;;;;;5114744;28;20051;-75
2021/08/09 04:35:44;;;;;;;14.55;5.28;;;;;;;;;;5114957;28;20085;-75
2021/08/09 04:38:09;;;;;;;9.52;4.05;;;;;;;;;;5115248;28;20110;-74
2021/08/09 04:40:34;;;;;;;11.57;4.70;;;;;;;;;;5115213;28;20027;-75
2021/08/09 04:43:00;;;;;;;12.43;4.25;;;;;;;;;;5115009;28;20031;-75
2021/08/09 04:45:25;;;;;;;15.75;4.55;;;;;;;;;;5115096;28;20440;-75
2021/08/09 04:47:51;;;;;;;13.10;4.43;;;;;;;;;;5115141;28;20031;-75
2021/08/09 04:50:16;;;;;;;15.95;4.18;;;;;;;;;;5114674;28;20112;-75
2021/08/09 04:52:42;;;;;;;13.63;4.10;;;;;;;;;;5114721;28;20422;-75
2021/08/09 04:55:08;;;;;;;11.48;3.78;;;;;;;;;;5114521;28;20601;-75
2021/08/09 04:57:33;;;;;;;14.65;3.88;;;;;;;;;;5114799;28;20031;-74
2021/08/09 04:59:58;;;;;;;12.57;4.43;;;;;;;;;;5114757;28;20043;-75
2021/08/09 05:02:24;;;;;;;14.55;4.05;;;;;;;;;;5114337;28;20023;-75
2021/08/09 05:04:49;;;;;;;13.27;4.40;;;;;;;;;;5114697;28;20028;-74
2021/08/09 05:07:15;;;;;;;11.15;4.68;;;;;;;;;;5114374;28;20027;-74
2021/08/09 05:09:40;;;;;;;17.05;4.60;;;;;;;;;;5114304;28;20030;-74
2021/08/09 05:12:06;;;;;;;12.60;5.47;;;;;;;;;;5114556;28;20103;-75
2021/08/09 05:14:31;;;;;;;15.70;4.45;;;;;;;;;;5114490;28;20036;-76
2021/08/09 05:16:57;;;;;;;18.02;4.55;;;;;;;;;;5114268;28;20031;-75
2021/08/09 05:19:22;;;;;;;11.13;4.68;;;;;;;;;;5114460;28;20035;-75
2021/08/09 05:21:47;;;;;;;14.45;4.25;;;;;;;;;;5114371;28;20022;-74
2021/08/09 05:24:12;;;;;;;15.02;4.90;;;;;;;;;;5114301;28;20040;-75
2021/08/09 05:26:38;;;;;;;14.00;5.03;;;;;;;;;;5114414;28;20039;-74
2021/08/09 05:29:03;;;;;;;16.70;5.05;;;;;;;;;;5114338;28;20026;-75
2021/08/09 05:31:28;;;;;;;12.82;4.45;;;;;;;;;;5114224;28;20020;-74
2021/08/09 05:33:57;;;;;;;11.88;4.50;;;;;;;;;;5114159;28;20038;-76
2021/08/09 05:36:22;;;;;;;16.70;4.68;;;;;;;;;;5113804;28;20106;-75
2021/08/09 05:38:48;;;;;;;11.75;4.18;;;;;;;;;;5114235;28;20118;-74
2021/08/09 05:41:13;;;;;;;13.40;4.15;;;;;;;;;;5114167;28;20063;-75
2021/08/09 05:43:38;;;;;;;8.13;3.15;;;;;;;;;;5114277;28;20031;-74
2021/08/09 05:46:04;;;;;;;8.50;2.55;;;;;;;;;;5114308;28;20050;-75
2021/08/09 05:48:29;;;;;;;5.90;2.50;;;;;;;;;;5114020;28;20379;-74
2021/08/09 05:50:54;;;;;;;6.47;2.15;;;;;;;;;;5113954;28;20072;-75
2021/08/09 05:53:20;;;;;;;6.18;2.33;;;;;;;;;;5113809;28;20431;-74
2021/08/09 05:55:45;;;;;;;8.05;2.58;;;;;;;;;;5113993;28;20027;-75
2021/08/09 05:58:10;;;;;;;7.72;2.20;;;;;;;;;;5113835;28;20352;-74
2021/08/09 06:00:36;;;;;;;7.57;1.95;;;;;;;;;;5113574;28;20115;-74
2021/08/09 06:03:01;;;;;;;4.95;2.15;;;;;;;;;;5113826;28;20036;-75
2021/08/09 06:05:27;;;;;;;7.07;2.30;;;;;;;;;;5114127;28;20167;-75
2021/08/09 06:07:52;;;;;;;8.50;2.40;;;;;;;;;;5113891;28;20038;-74
2021/08/09 06:10:19;;;;;;;5.88;2.40;;;;;;;;;;5113718;28;20034;-74
2021/08/09 06:12:44;;;;;;;10.90;3.28;;;;;;;;;;5113501;28;20459;-75
2021/08/09 06:15:10;;;;;;;9.05;2.80;;;;;;;;;;5117564;28;20044;-75
2021/08/09 06:17:35;;;;;;;9.38;3.38;;;;;;;;;;5117964;28;20081;-75
2021/08/09 06:20:01;;;;;;;14.27;4.07;;;;;;;;;;5117514;28;20047;-75
2021/08/09 06:22:26;;;;;;;10.00;3.63;;;;;;;;;;5117921;28;20028;-75
2021/08/09 06:24:52;;;;;;;11.07;4.22;;;;;;;;;;5117925;28;20426;-75
2021/08/09 06:27:17;;;;;;;12.23;3.90;;;;;;;;;;5117755;28;20358;-75
2021/08/09 06:29:42;;;;;;;12.50;4.10;;;;;;;;;;5117792;28;20074;-75
2021/08/09 06:32:08;;;;;;;11.32;3.97;;;;;;;;;;5117928;28;20067;-75
2021/08/09 06:34:33;;;;;;;8.88;3.72;;;;;;;;;;5117443;28;20028;-75
2021/08/09 06:36:58;;;;;;;21.40;4.43;;;;;;;;;;5117356;28;20114;-75
2021/08/09 06:39:23;;;;;;;9.30;3.42;;;;;;;;;;5117581;28;20136;-75
2021/08/09 06:41:49;;;;;;;10.70;3.00;;;;;;;;;;5117533;28;20494;-74
2021/08/09 06:44:14;;;;;;;10.50;3.00;;;;;;;;;;5117152;28;20032;-74
2021/08/09 06:46:40;;;;;;;9.52;3.80;;;;;;;;;;5117805;28;20137;-75
2021/08/09 06:49:05;;;;;;;6.55;3.22;;;;;;;;;;5117017;28;20094;-75
2021/08/09 06:51:31;;;;;;;9.20;3.47;;;;;;;;;;5117039;28;20036;-75
2021/08/09 06:53:56;;;;;;;8.90;3.83;;;;;;;;;;5117501;28;20035;-75
2021/08/09 06:56:21;;;;;;;11.02;3.05;;;;;;;;;;5117279;28;20098;-75
2021/08/09 06:58:46;;;;;;;7.65;2.90;;;;;;;;;;5117115;28;20023;-75
2021/08/09 07:01:12;;;;;;;6.30;2.83;;;;;;;;;;5117182;28;20575;-75
2021/08/09 07:03:37;;;;;;;8.45;2.50;;;;;;;;;;5117107;28;20024;-74
2021/08/09 07:06:02;;;;;;;5.82;2.05;;;;;;;;;;5116676;28;20495;-75
2021/08/09 07:08:28;;;;;;;7.18;2.00;;;;;;;;;;5116743;28;20043;-75
2021/08/09 07:10:53;;;;;;;3.45;1.92;;;;;;;;;;5116966;28;20022;-75
2021/08/09 07:13:18;;;;;;;4.18;1.67;;;;;;;;;;5116928;28;20063;-75
2021/08/09 07:15:44;;;;;;;14.32;1.70;;;;;;;;;;5116728;28;20507;-75
2021/08/09 07:18:09;;;;;;;5.20;1.80;;;;;;;;;;5116663;28;20408;-75
2021/08/09 07:20:34;;;;;;;6.43;1.98;;;;;;;;;;5115613;28;20056;-76
2021/08/09 07:23:00;;;;;;;1.50;1.23;;;;;;;;;;5116508;28;20483;-75
2021/08/09 07:25:26;;;;;;;2.85;1.55;;;;;;;;;;5116610;28;20027;-76
2021/08/09 07:27:51;;;;;;;2.33;1.42;;;;;;;;;;5116694;28;20035;-76
2021/08/09 07:30:17;;;;;;;4.60;2.08;;;;;;;;;;5116556;28;20156;-76
2021/08/09 07:32:43;;;;;;;2.05;1.30;;;;;;;;;;5116163;28;20052;-76
2021/08/09 07:35:09;;;;;;;3.60;1.58;;;;;;;;;;5115966;28;20043;-76
2021/08/09 07:37:34;;;;;;;2.22;1.48;;;;;;;;;;5116474;28;20459;-76
2021/08/09 07:39:59;;;;;;;2.28;1.10;;;;;;;;;;5116417;28;20058;-76
2021/08/09 07:42:25;;;;;;;2.03;1.48;;;;;;;;;;5116279;28;20020;-76
2021/08/09 07:44:51;;;;;;;3.83;1.67;;;;;;;;;;5116276;28;20024;-77
2021/08/09 07:47:16;;;;;;;2.38;1.40;;;;;;;;;;5116282;28;20023;-77
2021/08/09 07:49:42;;;;;;;3.80;1.48;;;;;;;;;;5116234;28;20081;-77
2021/08/09 07:52:07;;;;;;;1.80;1.38;;;;;;;;;;5116062;28;20036;-77
2021/08/09 07:54:32;;;;;;;2.50;1.13;;;;;;;;;;5115991;28;20034;-75
2021/08/09 07:57:01;;;;;;;1.67;1.30;;;;;;;;;;5115718;28;20104;-75
2021/08/09 07:59:27;;;;;;;3.78;1.45;;;;;;;;;;5116080;28;20036;-76
2021/08/09 08:01:52;;;;;;;2.00;1.70;;;;;;;;;;5116046;28;20027;-76
2021/08/09 08:04:18;;;;;;;2.10;1.38;;;;;;;;;;5115782;28;20043;-76
2021/08/09 08:06:43;;;;;;;3.70;1.33;;;;;;;;;;5115889;28;20536;-76
2021/08/09 08:09:08;;;;;;;2.38;1.23;;;;;;;;;;5116193;28;20020;-77
2021/08/09 08:11:34;;;;;;;3.90;1.48;;;;;;;;;;5113886;28;20034;-75
2021/08/09 08:14:00;;;;;;;3.88;1.70;;;;;;;;;;5103247;28;20027;-77
2021/08/09 08:16:25;;;;;;;2.20;1.50;;;;;;;;;;5115110;28;20382;-77
2021/08/09 08:18:50;;;;;;;4.97;1.60;;;;;;;;;;5115048;28;20160;-76
2021/08/09 08:21:16;;;;;;;2.53;1.30;;;;;;;;;;5115439;28;20027;-76
2021/08/09 08:23:41;;;;;;;3.70;1.13;;;;;;;;;;5114683;28;20268;-76
2021/08/09 08:26:06;;;;;;;1.37;1.20;;;;;;;;;;5115351;28;20027;-76
2021/08/09 08:28:31;;;;;;;3.13;1.38;;;;;;;;;;5115019;28;20272;-76
2021/08/09 08:30:57;;;;;;;2.03;1.50;;;;;;;;;;5115063;28;20493;-76
2021/08/09 08:33:22;;;;;;;4.43;1.60;;;;;;;;;;5114279;28;20317;-77
2021/08/09 08:35:47;;;;;;;2.70;1.53;;;;;;;;;;5114759;28;20032;-76
2021/08/09 08:38:13;;;;;;;3.83;1.30;;;;;;;;;;5100597;28;20304;-77
2021/08/09 08:40:45;;;;;;;1.83;1.02;;;;;;;;;;5097780;28;20280;-76
2021/08/09 08:43:20;;;;;;;2.60;1.25;;;;;;;;;;5087602;28;20032;-76
2021/08/09 08:45:46;;;;;;;3.38;1.70;;;;;;;;;;5098990;28;20039;-77
2021/08/09 08:48:11;;;;;;;2.80;1.90;;;;;;;;;;5111254;28;20524;-76
2021/08/09 08:50:37;;;;;;;5.80;1.80;;;;;;;;;;5110412;28;20034;-78
2021/08/09 08:53:02;;;;;;;4.50;2.15;;;;;;;;;;5109949;28;20036;-77
2021/08/09 08:55:27;;;;;;;2.45;1.33;;;;;;;;;;5109692;28;20410;-76
2021/08/09 08:57:52;;;;;;;7.17;2.10;;;;;;;;;;5110611;28;20023;-77
2021/08/09 09:00:18;;;;;;;4.05;1.67;;;;;;;;;;5110720;28;20255;-77
2021/08/09 09:02:43;;;;;;;2.58;1.60;;;;;;;;;;5110636;28;20142;-77
2021/08/09 09:05:12;;;;;;;7.38;1.67;;;;;;;;;;5110275;28;20114;-77
2021/08/09 09:07:41;;;;;;;3.22;1.38;;;;;;;;;;5110756;28;20034;-76
2021/08/09 09:10:23;;;;;;;2.58;1.52;;;;;;;;;;5110806;28;20039;-76
2021/08/09 09:13:08;;;;;;;3.97;1.60;;;;;;;;;;5110818;28;20023;-76
2021/08/09 09:15:54;;;;;;;1.80;1.50;;;;;;;;;;5111040;28;20027;-77
2021/08/09 09:18:20;;;;;;;3.55;1.35;;;;;;;;;;5110837;28;20063;-77
2021/08/09 09:20:45;;;;;;;2.58;1.67;;;;;;;;;;5110227;28;20059;-77
2021/08/09 09:23:12;;;;;;;2.35;1.50;;;;;;;;;;5110226;28;20019;-76
2021/08/09 09:25:37;;;;;;;4.50;1.50;;;;;;;;;;5110984;28;20043;-77
2021/08/09 09:28:21;;;;;;;2.63;1.75;;;;;;;;;;5110840;28;20050;-76
2021/08/09 09:30:47;;;;;;;2.60;1.40;;;;;;;;;;5110035;28;20107;-77
2021/08/09 09:33:12;;;;;;;2.00;1.38;;;;;;;;;;5109763;28;20131;-77
2021/08/09 09:35:38;;;;;;;3.73;1.40;;;;;;;;;;5110945;28;20027;-79
2021/08/09 09:38:04;;;;;;;2.47;1.50;;;;;;;;;;5110994;28;20295;-77
2021/08/09 09:40:37;;;;;;;3.22;1.88;;;;;;;;;;5110367;28;20035;-77
2021/08/09 09:43:13;;;;;;;3.95;1.77;;;;;;;;;;5110986;28;20027;-77
2021/08/09 09:45:47;;;;;;;4.60;1.60;;;;;;;;;;5110280;28;20044;-77
2021/08/09 09:48:14;;;;;;;2.08;1.50;;;;;;;;;;5109819;28;20102;-77
2021/08/09 09:50:43;;;;;;;4.10;1.50;;;;;;;;;;5087767;28;20473;-77
2021/08/09 09:53:15;;;;;;;2.63;1.20;;;;;;;;;;5090194;28;20515;-76
2021/08/09 09:55:41;;;;;;;1.80;1.40;;;;;;;;;;5089609;28;20483;-76
2021/08/09 09:58:07;;;;;;;4.32;1.80;;;;;;;;;;5090303;28;20028;-77
2021/08/09 10:00:32;;;;;;;4.15;1.88;;;;;;;;;;5090387;28;20389;-77
2021/08/09 10:02:57;;;;;;;2.85;1.52;;;;;;;;;;5090567;28;20488;-78
2021/08/09 10:05:22;;;;;;;3.28;1.50;;;;;;;;;;5089807;28;20070;-79
2021/08/09 10:07:48;;;;;;;2.65;1.50;;;;;;;;;;5090268;28;20020;-76
2021/08/09 10:10:14;;;;;;;2.45;1.55;;;;;;;;;;5089883;28;20085;-76
2021/08/09 10:12:41;;;;;;;3.97;1.63;;;;;;;;;;5090002;28;20036;-76
2021/08/09 10:15:07;;;;;;;6.22;1.73;;;;;;;;;;5089914;28;20055;-76
2021/08/09 10:17:33;;;;;;;4.90;1.77;;;;;;;;;;5090068;28;20032;-76
2021/08/09 10:19:59;;;;;;;2.60;1.40;;;;;;;;;;5090737;28;20036;-77
2021/08/09 10:22:25;;;;;;;2.92;1.55;;;;;;;;;;5091194;28;20027;-76
2021/08/09 10:24:57;;;;;;;3.08;1.77;;;;;;;;;;5088930;28;20036;-77
2021/08/09 10:27:40;;;;;;;2.63;1.90;;;;;;;;;;5089510;28;20028;-77
2021/08/09 10:30:08;;;;;;;4.30;2.05;;;;;;;;;;5146436;22;20057;-77
2021/08/09 10:32:41;;;;;;;2.80;1.40;;;;;;;;;;5034073;28;20041;-76
2021/08/09 10:35:27;;;;;;;3.58;1.70;;;;;;;;;;5051385;28;20033;-78
2021/08/09 10:38:09;;;;;;;3.28;1.70;;;;;;;;;;5052061;28;20033;-77
2021/08/09 10:40:35;;;;;;;2.60;1.65;;;;;;;;;;5052150;28;20701;-76
2021/08/09 10:43:00;;;;;;;4.27;1.67;;;;;;;;;;5052461;28;20025;-76
2021/08/09 10:45:44;;;;;;;3.45;1.75;;;;;;;;;;5052436;28;20297;-76
2021/08/09 10:48:09;;;;;;;2.65;1.50;;;;;;;;;;5032952;28;20028;-76
2021/08/09 10:50:39;;;;;;;2.17;1.38;;;;;;;;;;5032453;28;20473;-76
2021/08/09 10:53:24;;;;;;;2.65;1.70;;;;;;;;;;5032723;28;20014;-75
2021/08/09 10:55:50;;;;;;;2.53;1.50;;;;;;;;;;5031975;28;20037;-75
2021/08/09 10:58:34;;;;;;;2.17;1.55;;;;;;;;;;5032627;28;20044;-75
2021/08/09 11:00:59;;;;;;;3.20;1.92;;;;;;;;;;5035486;28;20116;-76
2021/08/09 11:03:24;;;;;;;3.70;1.85;;;;;;;;;;5042566;28;20063;-75
2021/08/09 11:05:50;;;;;;;4.43;1.60;;;;;;;;;;5055845;28;20024;-75
2021/08/09 11:08:15;;;;;;;3.05;1.90;;;;;;;;;;5055835;28;20033;-75
2021/08/09 11:11:07;;;;;;;3.28;1.77;;;;;;;;;;5055839;28;20036;-75
2021/08/09 11:13:38;;;;;;;4.20;1.75;;;;;;;;;;5050896;28;20041;-74
2021/08/09 11:16:04;;;;;;;1.77;1.30;;;;;;;;;;5055505;28;20058;-75
2021/08/09 11:18:30;;;;;;;2.55;1.60;;;;;;;;;;5055654;28;20431;-75
2021/08/09 11:21:08;;;;;;;3.58;2.17;;;;;;;;;;5055769;28;20124;-75
2021/08/09 11:23:37;;;;;;;3.35;2.15;;;;;;;;;;5055792;28;20057;-74
2021/08/09 11:26:03;;;;;;;4.22;2.10;;;;;;;;;;5055576;28;20048;-74
2021/08/09 11:28:29;;;;;;;3.10;1.83;;;;;;;;;;5055695;28;20033;-75
2021/08/09 11:30:55;;;;;;;4.28;2.20;;;;;;;;;;5055198;28;20114;-75
2021/08/09 11:33:41;;;;;;;3.67;2.10;;;;;;;;;;5054948;28;20029;-76
2021/08/09 11:36:06;;;;;;;3.53;2.17;;;;;;;;;;5055069;28;20040;-74
2021/08/09 11:38:41;;;;;;;2.95;2.00;;;;;;;;;;5055410;28;20025;-74
2021/08/09 11:41:10;;;;;;;4.85;2.42;;;;;;;;;;5055437;28;20029;-74
2021/08/09 11:43:35;;;;;;;4.28;2.42;;;;;;;;;;5055315;28;20021;-74
2021/08/09 11:46:03;;;;;;;4.18;2.15;;;;;;;;;;5055103;28;20048;-76
2021/08/09 11:48:36;;;;;;;3.83;2.33;;;;;;;;;;5055156;28;20024;-74
2021/08/09 11:51:04;;;;;;;5.72;2.90;;;;;;;;;;5055323;28;20033;-75
2021/08/09 11:53:29;;;;;;;4.25;2.35;;;;;;;;;;5050785;28;20032;-75
2021/08/09 11:56:08;;;;;;;7.15;2.53;;;;;;;;;;5050029;28;20461;-77
2021/08/09 11:58:34;;;;;;;7.32;2.20;;;;;;;;;;5041976;28;20110;-75
2021/08/09 12:01:00;;;;;;;3.35;2.03;;;;;;;;;;5050055;28;20057;-75
2021/08/09 12:03:28;;;;;;;3.85;2.08;;;;;;;;;;5044676;28;20025;-75
2021/08/09 12:05:55;;;;;;;5.75;2.03;;;;;;;;;;5051066;28;20052;-75
2021/08/09 12:08:21;;;;;;;7.65;1.95;;;;;;;;;;5051505;28;20033;-75
2021/08/09 12:10:46;;;;;;;4.22;2.15;;;;;;;;;;5051180;28;20032;-74
2021/08/09 12:13:24;;;;;;;6.03;1.85;;;;;;;;;;5051442;28;20021;-75
2021/08/09 12:16:05;;;;;;;3.83;1.80;;;;;;;;;;5050762;28;20055;-74
2021/08/09 12:18:30;;;;;;;3.80;1.98;;;;;;;;;;5052117;28;20109;-74
2021/08/09 12:21:14;;;;;;;3.90;1.98;;;;;;;;;;5051643;28;20420;-75
2021/08/09 12:23:50;;;;;;;5.30;1.67;;;;;;;;;;5050464;28;20039;-76
2021/08/09 12:26:41;;;;;;;8.00;1.63;;;;;;;;;;5050943;28;20082;-74
2021/08/09 12:29:14;;;;;;;6.30;1.80;;;;;;;;;;5036176;28;20480;-75
2021/08/09 12:31:46;;;;;;;3.92;1.83;;;;;;;;;;5051518;28;20053;-74
2021/08/09 12:34:13;;;;;;;4.28;1.42;;;;;;;;;;5051599;28;20032;-74
2021/08/09 12:36:38;;;;;;;3.97;1.65;;;;;;;;;;5049353;28;20040;-75
2021/08/09 12:39:04;;;;;;;3.88;1.70;;;;;;;;;;5050275;28;20024;-75
2021/08/09 12:41:30;;;;;;;4.93;1.80;;;;;;;;;;5050712;28;20048;-74
2021/08/09 12:43:56;;;;;;;4.32;1.77;;;;;;;;;;5050081;28;20025;-75
2021/08/09 12:46:22;;;;;;;4.68;1.70;;;;;;;;;;5050177;28;20025;-75
2021/08/09 12:48:48;;;;;;;8.55;2.00;;;;;;;;;;5050600;28;20021;-75
2021/08/09 12:51:13;;;;;;;3.60;1.65;;;;;;;;;;5049931;28;20046;-75
2021/08/09 12:53:39;;;;;;;5.18;1.58;;;;;;;;;;5050454;28;20036;-74
2021/08/09 12:56:04;;;;;;;4.88;1.80;;;;;;;;;;5050183;28;20025;-75
2021/08/09 12:58:29;;;;;;;6.10;1.25;;;;;;;;;;5048841;28;20037;-75
2021/08/09 13:00:55;;;;;;;5.13;1.40;;;;;;;;;;5050751;28;20066;-75
2021/08/09 13:03:20;;;;;;;5.15;1.55;;;;;;;;;;5050503;28;20051;-76
2021/08/09 13:05:46;;;;;;;3.95;1.60;;;;;;;;;;5049380;28;20048;-75
2021/08/09 13:08:11;;;;;;;3.60;1.60;;;;;;;;;;5049370;28;20024;-75
2021/08/09 13:10:36;;;;;;;4.05;1.60;;;;;;;;;;5049729;28;20146;-75
2021/08/09 13:13:02;;;;;;;3.78;1.60;;;;;;;;;;5042823;28;20373;-74
2021/08/09 13:15:27;;;;;;;7.03;1.65;;;;;;;;;;5049861;28;20456;-75
2021/08/09 13:17:52;;;;;;;6.03;1.70;;;;;;;;;;5050022;28;20070;-74
2021/08/09 13:20:17;;;;;;;3.92;1.73;;;;;;;;;;5048274;28;20472;-75
2021/08/09 13:22:43;;;;;;;2.80;1.40;;;;;;;;;;5050297;28;20032;-75
2021/08/09 13:25:08;;;;;;;3.30;1.42;;;;;;;;;;5050184;28;20037;-75
2021/08/09 13:27:33;;;;;;;4.13;1.60;;;;;;;;;;5049067;28;20079;-75
2021/08/09 13:30:01;;;;;;;5.93;1.80;;;;;;;;;;5049220;28;20052;-75
2021/08/09 13:32:26;;;;;;;4.78;1.58;;;;;;;;;;5049635;28;20021;-74
2021/08/09 13:34:52;;;;;;;6.22;1.80;;;;;;;;;;5049435;28;20064;-75
2021/08/09 13:37:17;;;;;;;3.88;1.52;;;;;;;;;;5049468;28;20017;-75
2021/08/09 13:39:42;;;;;;;6.60;1.65;;;;;;;;;;5049685;28;20076;-74
2021/08/09 13:42:07;;;;;;;2.90;1.20;;;;;;;;;;5048766;28;20048;-75
2021/08/09 13:44:33;;;;;;;6.05;1.42;;;;;;;;;;5049307;28;20021;-74
2021/08/09 13:46:58;;;;;;;3.08;1.35;;;;;;;;;;5049772;28;20439;-75
2021/08/09 13:49:23;;;;;;;3.67;1.30;;;;;;;;;;5048778;28;20098;-75
2021/08/09 13:51:48;;;;;;;3.42;1.45;;;;;;;;;;5049233;28;20025;-75
2021/08/09 13:54:14;;;;;;;9.75;1.60;;;;;;;;;;5049444;28;20029;-75
2021/08/09 13:56:39;;;;;;;6.30;1.50;;;;;;;;;;5048311;28;20102;-74
2021/08/09 13:59:04;;;;;;;4.55;2.03;;;;;;;;;;5049810;28;20024;-75
2021/08/09 14:01:30;;;;;;;7.32;1.65;;;;;;;;;;5048722;28;20075;-76
2021/08/09 14:03:55;;;;;;;5.65;1.40;;;;;;;;;;5049205;28;20473;-74
2021/08/09 14:06:20;;;;;;;4.32;1.30;;;;;;;;;;5048389;28;20025;-75
2021/08/09 14:08:45;;;;;;;5.55;1.83;;;;;;;;;;5049338;28;20017;-74
2021/08/09 14:11:14;;;;;;;7.32;1.33;;;;;;;;;;5049369;28;20521;-75
2021/08/09 14:13:40;;;;;;;4.00;1.42;;;;;;;;;;5048236;28;20444;-75
2021/08/09 14:16:05;;;;;;;5.38;1.67;;;;;;;;;;5049073;28;20027;-75
2021/08/09 14:18:30;;;;;;;4.97;1.35;;;;;;;;;;5049538;28;20029;-75
2021/08/09 14:20:56;;;;;;;4.35;1.92;;;;;;;;;;5048253;28;20198;-74
2021/08/09 14:23:21;;;;;;;5.18;1.55;;;;;;;;;;5048668;28;20028;-75
2021/08/09 14:25:46;;;;;;;2.28;1.17;;;;;;;;;;5049015;28;20036;-75
2021/08/09 14:28:13;;;;;;;3.38;1.30;;;;;;;;;;5048234;28;20025;-75
2021/08/09 14:30:38;;;;;;;3.70;1.40;;;;;;;;;;5049515;28;20136;-75
2021/08/09 14:33:03;;;;;;;3.60;1.40;;;;;;;;;;5048443;28;20458;-75
2021/08/09 14:35:29;;;;;;;3.50;1.38;;;;;;;;;;5051165;28;20535;-74
2021/08/09 14:37:54;;;;;;;6.88;2.30;;;;;;;;;;5052583;28;20013;-74